Aviation Digital Data Service (ADDS)

Output produced by METARs form (2137 UTC 21 May 2022)
found at http://www.aviationweather.gov/metar/data/
 
LHPR 212115Z AUTO 31004KT CAVOK 15/09 Q1017
LHPR 212045Z AUTO 33005KT CAVOK 15/09 Q1017
LHPR 212015Z AUTO 32006KT CAVOK 16/09 Q1016
LHPR 211945Z AUTO 32006KT CAVOK 17/10 Q1016
LHPR 211915Z AUTO 31006KT CAVOK 17/10 Q1016
LHPR 211845Z AUTO 31009KT CAVOK 19/10 Q1015
LHPR 211815Z AUTO 33008KT CAVOK 20/10 Q1015
LHPR 211745Z AUTO 33006KT CAVOK 21/10 Q1015
LHPR 211715Z AUTO 32009KT CAVOK 22/08 Q1015
LHPR 211645Z AUTO 33012KT CAVOK 24/07 Q1015 NOSIG
LHPR 211615Z AUTO 33018KT CAVOK 24/07 Q1015 NOSIG
LHPR 211545Z AUTO 33017G27KT CAVOK 25/09 Q1015 NOSIG
TAF LHPR 211715Z 2118/2203 32010KT CAVOK 
     BECMG 2118/2121 29005KT